Time;durP1;ratioP1;P1;durP2;ratioP2;P2;SDS_P1;SDS_P2;PMS_P1;PMS_P2;Temp;Humidity;BMP_temperature;BMP_pressure;BME280_temperature;BME280_humidity;BME280_pressure;Samples;Min_cycle;Max_cycle;Signal;HPM_P1;HPM_P2
2023/06/05 00:00:08;;;;;;;7.90;3.00;;;;;;;7.21;74.35;100659.17;108938;1259;58329;-71
2023/06/05 00:03:20;;;;;;;9.60;3.00;;;;;;;7.20;74.47;100662.93;108969;1259;58925;-67
2023/06/05 00:06:08;;;;;;;7.90;2.80;;;;;;;7.20;74.53;100662.40;109125;1255;71195;-68
2023/06/05 00:08:56;;;;;;;9.20;3.10;;;;;;;7.19;74.84;100663.70;109106;1256;67058;-68
2023/06/05 00:11:44;;;;;;;8.20;3.20;;;;;;;7.18;74.75;100661.66;109103;1256;72520;-72
2023/06/05 00:14:32;;;;;;;8.90;3.00;;;;;;;7.14;75.29;100663.41;109072;1256;56966;-69
2023/06/05 00:17:20;;;;;;;8.30;3.20;;;;;;;7.10;75.41;100660.83;109207;1256;60069;-69
2023/06/05 00:20:09;;;;;;;7.50;3.40;;;;;;;7.06;75.52;100658.95;109111;1256;71471;-68
2023/06/05 00:22:58;;;;;;;7.50;3.00;;;;;;;7.02;75.64;100663.58;108437;1256;1067118;-68
2023/06/05 00:25:46;;;;;;;8.00;3.20;;;;;;;6.97;75.69;100661.86;109024;1256;71139;-69
2023/06/05 00:28:34;;;;;;;8.70;3.10;;;;;;;6.95;75.90;100657.03;109284;1256;60350;-68
2023/06/05 00:31:23;;;;;;;8.80;3.20;;;;;;;6.92;76.16;100653.67;109138;1256;58750;-70
2023/06/05 00:34:13;;;;;;;8.30;3.30;;;;;;;6.88;76.23;100657.21;109038;1256;69884;-69
2023/06/05 00:37:02;;;;;;;8.70;3.00;;;;;;;6.87;76.14;100659.56;109112;1256;66844;-71
2023/06/05 00:39:51;;;;;;;7.20;2.60;;;;;;;6.86;76.50;100658.02;109092;1256;71435;-67
2023/06/05 00:42:39;;;;;;;7.60;2.70;;;;;;;6.86;76.50;100655.41;109126;1256;57943;-69
2023/06/05 00:45:28;;;;;;;7.60;2.50;;;;;;;6.86;76.31;100658.19;109064;1256;59061;-68
2023/06/05 00:48:17;;;;;;;7.50;2.30;;;;;;;6.86;76.03;100658.05;109069;1256;70669;-67
2023/06/05 00:51:06;;;;;;;7.90;2.20;;;;;;;6.83;75.97;100653.59;109286;1256;66656;-69
2023/06/05 00:53:55;;;;;;;8.00;2.10;;;;;;;6.81;75.88;100654.58;109133;1256;72479;-69
2023/06/05 00:56:45;;;;;;;6.00;1.80;;;;;;;6.80;76.17;100657.45;109012;1256;57082;-72
2023/06/05 00:59:34;;;;;;;6.70;2.00;;;;;;;6.76;75.79;100658.17;109141;1256;61495;-69
2023/06/05 01:02:22;;;;;;;6.50;2.20;;;;;;;6.71;76.17;100655.29;109106;1256;71946;-68
2023/06/05 01:05:10;;;;;;;7.30;2.90;;;;;;;6.64;76.57;100660.40;109173;1256;67550;-70
2023/06/05 01:08:02;;;;;;;8.80;2.60;;;;;;;6.60;76.62;100654.25;109177;1256;72669;-70
2023/06/05 01:10:54;;;;;;;7.90;2.90;;;;;;;6.58;77.07;100652.47;109111;1256;57092;-69
2023/06/05 01:13:54;;;;;;;11.70;2.80;;;;;;;6.56;77.68;100657.31;108370;1256;1057906;-69
2023/06/05 01:16:46;;;;;;;8.10;3.10;;;;;;;6.54;77.47;100656.34;109058;1256;71164;-69
2023/06/05 01:19:36;;;;;;;9.20;3.00;;;;;;;6.53;77.74;100659.57;108348;1256;1002406;-72
2023/06/05 01:22:26;;;;;;;7.80;3.30;;;;;;;6.53;77.91;100661.89;109040;1256;72299;-71
2023/06/05 01:25:14;;;;;;;9.70;2.90;;;;;;;6.52;78.13;100658.56;109171;1256;57764;-70
2023/06/05 01:28:25;;;;;;;8.80;3.00;;;;;;;-128.00;-1.00;-1.00;106410;1256;1012390;-68
2023/06/05 01:31:19;;;;;;;7.40;2.50;;;;;;;-128.00;-1.00;-1.00;106407;1256;1012692;-72
2023/06/05 01:34:13;;;;;;;7.60;2.70;;;;;;;-128.00;-1.00;-1.00;106404;1256;1012658;-68
2023/06/05 01:37:02;;;;;;;8.20;3.10;;;;;;;-128.00;-1.00;-1.00;106429;1256;1012648;-69
2023/06/05 01:39:51;;;;;;;7.30;2.70;;;;;;;-128.00;-1.00;-1.00;106422;1256;1010239;-68
2023/06/05 01:42:42;;;;;;;8.30;2.40;;;;;;;-128.00;-1.00;-1.00;106352;1256;1011565;-67
2023/06/05 01:45:30;;;;;;;7.80;2.70;;;;;;;-128.00;-1.00;-1.00;106594;1256;1012174;-73
2023/06/05 01:48:18;;;;;;;8.40;2.40;;;;;;;-128.00;-1.00;-1.00;106456;1256;1013284;-68
2023/06/05 01:51:06;;;;;;;6.80;2.10;;;;;;;-128.00;-1.00;-1.00;106395;1257;1012591;-69
2023/06/05 01:53:55;;;;;;;8.10;2.20;;;;;;;-128.00;-1.00;-1.00;106429;1257;1010669;-70
2023/06/05 01:56:43;;;;;;;6.30;2.00;;;;;;;-128.00;-1.00;-1.00;106537;1258;1010344;-69
2023/06/05 01:59:33;;;;;;;7.20;1.90;;;;;;;-128.00;-1.00;-1.00;106324;1261;1012289;-70
2023/06/05 02:02:23;;;;;;;5.70;2.10;;;;;;;-128.00;-1.00;-1.00;106540;1257;1013085;-71
2023/06/05 02:05:12;;;;;;;6.90;2.30;;;;;;;-128.00;-1.00;-1.00;106516;1257;1012497;-70
2023/06/05 02:08:04;;;;;;;5.70;2.00;;;;;;;-128.00;-1.00;-1.00;106559;1258;1010054;-70
2023/06/05 02:10:54;;;;;;;6.10;1.70;;;;;;;-128.00;-1.00;-1.00;106391;1258;1011366;-70
2023/06/05 02:13:43;;;;;;;7.40;2.10;;;;;;;-128.00;-1.00;-1.00;106419;1257;1013174;-70
2023/06/05 02:16:33;;;;;;;7.00;1.60;;;;;;;-128.00;-1.00;-1.00;106376;1257;1012025;-70
2023/06/05 02:19:31;;;;;;;5.50;1.80;;;;;;;-128.00;-1.00;-1.00;106463;1257;1012943;-70
2023/06/05 02:22:19;;;;;;;5.90;1.90;;;;;;;-128.00;-1.00;-1.00;106344;1258;1009706;-72
2023/06/05 02:25:12;;;;;;;7.00;2.00;;;;;;;-128.00;-1.00;-1.00;106434;1257;1011546;-71
2023/06/05 02:28:00;;;;;;;6.60;2.20;;;;;;;-128.00;-1.00;-1.00;106316;1259;1012229;-69
2023/06/05 02:30:48;;;;;;;6.20;2.20;;;;;;;-128.00;-1.00;-1.00;106407;1258;1012988;-66
2023/06/05 02:33:36;;;;;;;8.40;2.70;;;;;;;-128.00;-1.00;-1.00;106414;1258;1013726;-69
2023/06/05 02:36:25;;;;;;;6.80;2.20;;;;;;;-128.00;-1.00;-1.00;106224;1261;1010279;-68
2023/06/05 02:39:13;;;;;;;7.40;2.50;;;;;;;-128.00;-1.00;-1.00;106230;1260;1011503;-67
2023/06/05 02:42:00;;;;;;;6.70;2.30;;;;;;;-128.00;-1.00;-1.00;106148;1260;1012677;-70
2023/06/05 02:44:49;;;;;;;7.60;2.40;;;;;;;-128.00;-1.00;-1.00;106199;1260;1013015;-69
2023/06/05 02:47:37;;;;;;;7.20;2.30;;;;;;;-128.00;-1.00;-1.00;106241;1260;1013421;-67
2023/06/05 02:50:25;;;;;;;6.90;2.50;;;;;;;-128.00;-1.00;-1.00;106133;1260;1010371;-70
2023/06/05 02:53:15;;;;;;;7.80;2.60;;;;;;;-128.00;-1.00;-1.00;106238;1260;1010618;-67
2023/06/05 02:56:04;;;;;;;7.10;2.80;;;;;;;-128.00;-1.00;-1.00;106223;1264;1012314;-67
2023/06/05 02:58:53;;;;;;;7.30;2.60;;;;;;;-128.00;-1.00;-1.00;106257;1263;1011548;-70
2023/06/05 03:01:47;;;;;;;5.80;2.30;;;;;;;-128.00;-1.00;-1.00;106148;1260;1012482;-68
2023/06/05 03:04:36;;;;;;;6.80;2.20;;;;;;;-128.00;-1.00;-1.00;106159;1260;1009524;-69
2023/06/05 03:07:24;;;;;;;5.70;1.90;;;;;;;-128.00;-1.00;-1.00;106346;1257;1010976;-68
2023/06/05 03:10:12;;;;;;;6.50;2.20;;;;;;;-128.00;-1.00;-1.00;106316;1257;1012506;-69
2023/06/05 03:13:01;;;;;;;5.90;1.80;;;;;;;-128.00;-1.00;-1.00;106279;1266;1012390;-68
2023/06/05 03:15:53;;;;;;;5.90;2.00;;;;;;;-128.00;-1.00;-1.00;106436;1257;1012545;-70
2023/06/05 03:18:41;;;;;;;6.60;1.80;;;;;;;-128.00;-1.00;-1.00;106302;1257;1009607;-70
2023/06/05 03:21:29;;;;;;;6.50;2.10;;;;;;;-128.00;-1.00;-1.00;106520;1259;1011636;-68
2023/06/05 03:24:17;;;;;;;6.20;1.70;;;;;;;-128.00;-1.00;-1.00;106383;1257;1013497;-68
2023/06/05 03:27:10;;;;;;;6.80;1.90;;;;;;;-128.00;-1.00;-1.00;106378;1257;1013373;-70
2023/06/05 03:29:58;;;;;;;6.60;2.00;;;;;;;-128.00;-1.00;-1.00;106344;1257;1012691;-72
2023/06/05 03:32:47;;;;;;;7.60;2.20;;;;;;;-128.00;-1.00;-1.00;106340;1259;1010450;-70
2023/06/05 03:35:36;;;;;;;8.10;2.10;;;;;;;-128.00;-1.00;-1.00;106334;1257;1010653;-69
2023/06/05 03:38:26;;;;;;;8.60;2.20;;;;;;;-128.00;-1.00;-1.00;106458;1257;1012718;-70
2023/06/05 03:41:15;;;;;;;7.20;2.20;;;;;;;-128.00;-1.00;-1.00;106344;1257;1012145;-71
2023/06/05 03:44:03;;;;;;;7.00;1.90;;;;;;;-128.00;-1.00;-1.00;106376;1258;1012369;-69
2023/06/05 03:46:52;;;;;;;5.50;1.60;;;;;;;-128.00;-1.00;-1.00;106310;1258;1010675;-72
2023/06/05 03:49:45;;;;;;;6.20;2.00;;;;;;;-128.00;-1.00;-1.00;106456;1256;1011112;-71
2023/06/05 03:52:39;;;;;;;6.30;2.00;;;;;;;-128.00;-1.00;-1.00;106433;1257;1013407;-70
2023/06/05 03:55:36;;;;;;;6.00;1.90;;;;;;;-128.00;-1.00;-1.00;106436;1256;1013861;-71
2023/06/05 03:58:26;;;;;;;8.10;2.30;;;;;;;-128.00;-1.00;-1.00;106356;1260;1012752;-69
2023/06/05 04:01:15;;;;;;;7.90;2.10;;;;;;;-128.00;-1.00;-1.00;106423;1256;1010022;-69
2023/06/05 04:04:08;;;;;;;6.40;1.80;;;;;;;-128.00;-1.00;-1.00;106421;1256;1011345;-72
2023/06/05 04:06:57;;;;;;;7.40;1.90;;;;;;;-128.00;-1.00;-1.00;106327;1256;1012357;-73
2023/06/05 04:09:46;;;;;;;7.90;2.30;;;;;;;-128.00;-1.00;-1.00;106380;1264;1011823;-71
2023/06/05 04:12:34;;;;;;;7.90;2.40;;;;;;;-128.00;-1.00;-1.00;106349;1256;1012335;-72
2023/06/05 04:15:23;;;;;;;6.60;2.50;;;;;;;-128.00;-1.00;-1.00;106388;1256;1009520;-73
2023/06/05 04:18:11;;;;;;;9.90;2.80;;;;;;;-128.00;-1.00;-1.00;106381;1256;1011635;-70
2023/06/05 04:20:59;;;;;;;7.90;2.10;;;;;;;-128.00;-1.00;-1.00;106317;1257;1012119;-71
2023/06/05 04:23:47;;;;;;;8.00;2.00;;;;;;;-128.00;-1.00;-1.00;106349;1260;1011676;-69
2023/06/05 04:26:43;;;;;;;7.00;2.30;;;;;;;-128.00;-1.00;-1.00;106328;1257;1013208;-72
2023/06/05 04:29:32;;;;;;;7.20;2.50;;;;;;;-128.00;-1.00;-1.00;106506;1257;1010124;-70
2023/06/05 04:32:20;;;;;;;6.70;1.90;;;;;;;-128.00;-1.00;-1.00;106351;1257;1009921;-70
2023/06/05 04:35:09;;;;;;;7.20;2.40;;;;;;;-128.00;-1.00;-1.00;106375;1257;1014087;-71
2023/06/05 04:37:59;;;;;;;8.50;2.80;;;;;;;-128.00;-1.00;-1.00;106397;1257;1013203;-70
2023/06/05 04:40:48;;;;;;;7.50;1.90;;;;;;;-128.00;-1.00;-1.00;106378;1257;1012768;-73
2023/06/05 04:43:42;;;;;;;5.90;2.00;;;;;;;-128.00;-1.00;-1.00;106376;1259;1009511;-72
2023/06/05 04:46:31;;;;;;;8.60;2.20;;;;;;;-128.00;-1.00;-1.00;106405;1257;1011235;-74
2023/06/05 04:49:26;;;;;;;9.40;2.60;;;;;;;-128.00;-1.00;-1.00;106415;1256;1013145;-69
2023/06/05 04:52:15;;;;;;;6.70;2.00;;;;;;;-128.00;-1.00;-1.00;106318;1256;1013352;-72
2023/06/05 04:55:03;;;;;;;11.30;2.80;;;;;;;-128.00;-1.00;-1.00;106426;1256;1013663;-72
2023/06/05 04:57:53;;;;;;;8.60;3.10;;;;;;;-128.00;-1.00;-1.00;106492;1256;1009946;-70
2023/06/05 05:00:41;;;;;;;7.00;1.50;;;;;;;-128.00;-1.00;-1.00;106449;1255;1010394;-73
2023/06/05 05:03:29;;;;;;;6.00;1.60;;;;;;;-128.00;-1.00;-1.00;106398;1256;1011878;-71
2023/06/05 05:06:18;;;;;;;10.40;1.90;;;;;;;-128.00;-1.00;-1.00;106395;1256;1013339;-68
2023/06/05 05:09:06;;;;;;;8.60;2.20;;;;;;;-128.00;-1.00;-1.00;106498;1255;1013058;-70
2023/06/05 05:11:57;;;;;;;5.10;1.50;;;;;;;-128.00;-1.00;-1.00;106470;1256;1008945;-71
2023/06/05 05:14:45;;;;;;;5.30;1.10;;;;;;;-128.00;-1.00;-1.00;106461;1257;1011057;-73
2023/06/05 05:17:33;;;;;;;5.80;1.30;;;;;;;-128.00;-1.00;-1.00;106522;1256;1012974;-75
2023/06/05 05:20:22;;;;;;;5.10;1.20;;;;;;;-128.00;-1.00;-1.00;106662;1257;1012231;-76
2023/06/05 05:23:10;;;;;;;5.50;1.30;;;;;;;-128.00;-1.00;-1.00;106371;1257;1012723;-74
2023/06/05 05:25:58;;;;;;;5.10;1.20;;;;;;;-128.00;-1.00;-1.00;106425;1256;1010296;-72
2023/06/05 05:28:46;;;;;;;5.60;1.30;;;;;;;-128.00;-1.00;-1.00;106451;1256;1011766;-73
2023/06/05 05:31:34;;;;;;;6.60;1.20;;;;;;;-128.00;-1.00;-1.00;106429;1257;1013860;-78
2023/06/05 05:34:23;;;;;;;6.80;1.30;;;;;;;-128.00;-1.00;-1.00;106486;1257;1012603;-79
2023/06/05 05:37:12;;;;;;;4.90;1.20;;;;;;;-128.00;-1.00;-1.00;106225;1265;1012296;-74
2023/06/05 05:40:00;;;;;;;6.30;1.00;;;;;;;-128.00;-1.00;-1.00;106267;1261;1010372;-75
2023/06/05 05:42:48;;;;;;;4.70;1.00;;;;;;;-128.00;-1.00;-1.00;106277;1259;1010532;-77
2023/06/05 05:45:38;;;;;;;6.10;1.20;;;;;;;-128.00;-1.00;-1.00;106103;1261;1013057;-77
2023/06/05 05:48:27;;;;;;;6.10;1.20;;;;;;;-128.00;-1.00;-1.00;106205;1263;1012916;-78
2023/06/05 05:51:15;;;;;;;7.70;1.10;;;;;;;-128.00;-1.00;-1.00;106122;1262;1012455;-77
2023/06/05 05:54:06;;;;;;;5.00;1.10;;;;;;;-128.00;-1.00;-1.00;106082;1262;1009644;-77
2023/06/05 05:56:55;;;;;;;4.90;0.90;;;;;;;-128.00;-1.00;-1.00;106069;1263;1011206;-74
2023/06/05 05:59:44;;;;;;;4.30;1.00;;;;;;;-128.00;-1.00;-1.00;106168;1261;1011792;-76
2023/06/05 06:02:32;;;;;;;6.00;1.20;;;;;;;-128.00;-1.00;-1.00;106088;1266;1012379;-76
2023/06/05 06:05:20;;;;;;;4.90;1.10;;;;;;;-128.00;-1.00;-1.00;106061;1262;1012948;-74
2023/06/05 06:08:09;;;;;;;5.30;1.00;;;;;;;-128.00;-1.00;-1.00;106136;1259;1009506;-75
2023/06/05 06:10:57;;;;;;;5.60;1.10;;;;;;;-128.00;-1.00;-1.00;106349;1259;1011120;-75
2023/06/05 06:13:48;;;;;;;5.80;1.00;;;;;;;-128.00;-1.00;-1.00;106260;1259;1012646;-76
2023/06/05 06:16:38;;;;;;;5.30;1.00;;;;;;;-128.00;-1.00;-1.00;106328;1261;1012524;-73
2023/06/05 06:19:27;;;;;;;5.80;1.00;;;;;;;-128.00;-1.00;-1.00;106393;1256;1013009;-75
2023/06/05 06:22:15;;;;;;;6.00;1.20;;;;;;;-128.00;-1.00;-1.00;106505;1256;1009170;-76
2023/06/05 06:25:03;;;;;;;4.20;0.80;;;;;;;-128.00;-1.00;-1.00;106506;1256;1011721;-78
2023/06/05 06:27:53;;;;;;;4.20;0.90;;;;;;;-128.00;-1.00;-1.00;106524;1256;1012095;-80
2023/06/05 06:30:42;;;;;;;5.60;1.10;;;;;;;-128.00;-1.00;-1.00;106579;1256;1013117;-78
2023/06/05 06:33:30;;;;;;;8.70;1.10;;;;;;;-128.00;-1.00;-1.00;106474;1255;1012760;-79
2023/06/05 06:36:19;;;;;;;4.90;1.00;;;;;;;-128.00;-1.00;-1.00;106561;1257;1009699;-79
2023/06/05 06:39:10;;;;;;;6.80;1.20;;;;;;;-128.00;-1.00;-1.00;106547;1255;1010953;-78
2023/06/05 06:41:58;;;;;;;5.50;0.90;;;;;;;-128.00;-1.00;-1.00;106585;1256;1011672;-77
2023/06/05 06:44:55;;;;;;;6.30;1.30;;;;;;;-128.00;-1.00;-1.00;106419;1263;1013245;-80
2023/06/05 06:47:44;;;;;;;5.90;1.20;;;;;;;-128.00;-1.00;-1.00;106467;1257;1012942;-75
2023/06/05 06:50:46;;;;;;;4.50;1.00;;;;;;;-128.00;-1.00;-1.00;106534;1256;1009871;-79
2023/06/05 06:53:34;;;;;;;5.90;1.30;;;;;;;-128.00;-1.00;-1.00;106703;1256;1011255;-76
2023/06/05 06:56:22;;;;;;;5.40;1.00;;;;;;;-128.00;-1.00;-1.00;106477;1257;1011982;-74
2023/06/05 06:59:14;;;;;;;5.70;1.60;;;;;;;-128.00;-1.00;-1.00;106556;1257;1011586;-76
2023/06/05 07:02:20;;;;;;;6.10;1.10;;;;;;;-128.00;-1.00;-1.00;106356;1256;1013380;-79
2023/06/05 07:05:09;;;;;;;5.70;0.90;;;;;;;-128.00;-1.00;-1.00;106305;1259;1010031;-76
2023/06/05 07:08:00;;;;;;;7.10;1.00;;;;;;;-128.00;-1.00;-1.00;106282;1260;1010678;-76
2023/06/05 07:10:49;;;;;;;6.10;0.90;;;;;;;-128.00;-1.00;-1.00;106348;1259;1013317;-82
2023/06/05 07:13:37;;;;;;;5.60;1.20;;;;;;;-128.00;-1.00;-1.00;106345;1259;1011928;-79
2023/06/05 07:16:27;;;;;;;5.40;1.20;;;;;;;-128.00;-1.00;-1.00;106318;1259;1012315;-81
2023/06/05 07:19:17;;;;;;;6.40;1.20;;;;;;;-128.00;-1.00;-1.00;106388;1259;1009516;-78
2023/06/05 07:22:05;;;;;;;5.50;0.90;;;;;;;-128.00;-1.00;-1.00;106336;1259;1010643;-79
2023/06/05 07:24:55;;;;;;;7.60;1.30;;;;;;;-128.00;-1.00;-1.00;106412;1260;1012964;-80
2023/06/05 07:27:44;;;;;;;6.30;1.20;;;;;;;-128.00;-1.00;-1.00;106368;1260;1012671;-79
2023/06/05 07:30:34;;;;;;;5.30;1.30;;;;;;;-128.00;-1.00;-1.00;106281;1261;1012007;-79
2023/06/05 07:33:24;;;;;;;5.30;1.10;;;;;;;-128.00;-1.00;-1.00;106179;1259;1009934;-74
2023/06/05 07:36:17;;;;;;;7.30;1.10;;;;;;;-128.00;-1.00;-1.00;106410;1256;1012408;-76
2023/06/05 07:39:06;;;;;;;6.40;1.20;;;;;;;-128.00;-1.00;-1.00;106295;1256;1012716;-71
2023/06/05 07:41:53;;;;;;;8.00;1.30;;;;;;;-128.00;-1.00;-1.00;106380;1260;1012419;-72
2023/06/05 07:44:42;;;;;;;6.20;1.00;;;;;;;-128.00;-1.00;-1.00;106446;1256;1012418;-76
2023/06/05 07:47:30;;;;;;;8.10;1.30;;;;;;;-128.00;-1.00;-1.00;106418;1256;1009923;-73
2023/06/05 07:50:18;;;;;;;8.20;1.20;;;;;;;-128.00;-1.00;-1.00;106326;1257;1010512;-72
2023/06/05 07:53:06;;;;;;;5.50;1.10;;;;;;;-128.00;-1.00;-1.00;106368;1257;1012787;-73
2023/06/05 07:55:55;;;;;;;6.40;1.20;;;;;;;-128.00;-1.00;-1.00;106511;1256;1012499;-71
2023/06/05 07:58:43;;;;;;;6.90;1.20;;;;;;;-128.00;-1.00;-1.00;106464;1256;1013022;-69
2023/06/05 08:01:37;;;;;;;6.50;1.30;;;;;;;-128.00;-1.00;-1.00;106548;1256;1010521;-77
2023/06/05 08:04:25;;;;;;;8.70;1.30;;;;;;;-128.00;-1.00;-1.00;106525;1257;1010753;-71
2023/06/05 08:07:13;;;;;;;6.20;1.30;;;;;;;-128.00;-1.00;-1.00;106462;1256;1013510;-72
2023/06/05 08:10:01;;;;;;;6.70;1.40;;;;;;;-128.00;-1.00;-1.00;106403;1256;1012806;-71
2023/06/05 08:12:49;;;;;;;7.00;1.50;;;;;;;-128.00;-1.00;-1.00;106445;1257;1012544;-72
2023/06/05 08:15:40;;;;;;;6.80;1.40;;;;;;;-128.00;-1.00;-1.00;106472;1256;1009642;-74
2023/06/05 08:18:28;;;;;;;7.80;1.70;;;;;;;-128.00;-1.00;-1.00;106482;1256;1010817;-71
2023/06/05 08:21:16;;;;;;;6.80;1.30;;;;;;;-128.00;-1.00;-1.00;106421;1256;1013026;-72
2023/06/05 08:24:05;;;;;;;5.70;1.20;;;;;;;-128.00;-1.00;-1.00;106424;1257;1012620;-70
2023/06/05 08:26:53;;;;;;;8.30;1.20;;;;;;;-128.00;-1.00;-1.00;106439;1256;1013053;-72
2023/06/05 08:29:41;;;;;;;5.80;1.20;;;;;;;-128.00;-1.00;-1.00;106433;1257;1009682;-73
2023/06/05 08:32:30;;;;;;;5.50;1.20;;;;;;;-128.00;-1.00;-1.00;106436;1257;1011257;-72
2023/06/05 08:35:18;;;;;;;5.20;1.10;;;;;;;-128.00;-1.00;-1.00;106469;1257;1012399;-76
2023/06/05 08:38:07;;;;;;;6.00;1.10;;;;;;;-128.00;-1.00;-1.00;106290;1260;1012283;-73
2023/06/05 08:41:01;;;;;;;5.80;1.10;;;;;;;-128.00;-1.00;-1.00;106366;1257;1013315;-74
2023/06/05 08:43:48;;;;;;;5.40;1.40;;;;;;;-128.00;-1.00;-1.00;106448;1256;1009704;-77
2023/06/05 08:46:40;;;;;;;5.50;1.10;;;;;;;-128.00;-1.00;-1.00;106498;1256;1010616;-72
2023/06/05 08:49:29;;;;;;;6.80;1.10;;;;;;;-128.00;-1.00;-1.00;106547;1256;1013092;-72
2023/06/05 08:52:22;;;;;;;5.60;1.20;;;;;;;-128.00;-1.00;-1.00;106406;1257;1011959;-72
2023/06/05 08:55:10;;;;;;;6.00;1.00;;;;;;;-128.00;-1.00;-1.00;106424;1256;1013315;-70
2023/06/05 08:57:59;;;;;;;4.70;0.90;;;;;;;-128.00;-1.00;-1.00;106287;1260;1010177;-78
2023/06/05 09:00:49;;;;;;;5.30;1.00;;;;;;;-128.00;-1.00;-1.00;106169;1260;1011056;-74
2023/06/05 09:03:37;;;;;;;6.50;1.00;;;;;;;-128.00;-1.00;-1.00;106266;1260;1013345;-76
2023/06/05 09:06:27;;;;;;;4.90;1.10;;;;;;;-128.00;-1.00;-1.00;106213;1260;1013560;-76
2023/06/05 09:09:15;;;;;;;6.30;1.10;;;;;;;-128.00;-1.00;-1.00;105997;1263;1012364;-73
2023/06/05 09:12:06;;;;;;;4.60;0.80;;;;;;;-128.00;-1.00;-1.00;106055;1264;1009514;-75
2023/06/05 09:14:54;;;;;;;4.40;0.90;;;;;;;-128.00;-1.00;-1.00;106049;1264;1010446;-75
2023/06/05 09:17:45;;;;;;;5.00;0.90;;;;;;;-128.00;-1.00;-1.00;106009;1264;1012855;-77
2023/06/05 09:20:34;;;;;;;4.70;1.20;;;;;;;-128.00;-1.00;-1.00;105954;1264;1012842;-77
2023/06/05 09:23:28;;;;;;;4.40;0.90;;;;;;;-128.00;-1.00;-1.00;105969;1264;1012057;-76
2023/06/05 09:26:17;;;;;;;5.70;1.00;;;;;;;-128.00;-1.00;-1.00;105942;1264;1010107;-76
2023/06/05 09:29:09;;;;;;;6.20;1.40;;;;;;;-128.00;-1.00;-1.00;106173;1260;1011081;-73
2023/06/05 09:32:05;;;;;;;5.50;1.10;;;;;;;-128.00;-1.00;-1.00;106157;1260;1013561;-78
2023/06/05 09:35:01;;;;;;;4.50;1.00;;;;;;;-128.00;-1.00;-1.00;106158;1260;1012784;-74
2023/06/05 09:37:48;;;;;;;5.40;1.10;;;;;;;-128.00;-1.00;-1.00;106255;1260;1012311;-77
2023/06/05 09:40:37;;;;;;;5.00;1.00;;;;;;;-128.00;-1.00;-1.00;106382;1256;1009805;-79
2023/06/05 09:43:26;;;;;;;9.10;1.30;;;;;;;-128.00;-1.00;-1.00;106416;1256;1011139;-77
2023/06/05 09:46:15;;;;;;;6.70;1.30;;;;;;;-128.00;-1.00;-1.00;106506;1255;1012862;-70
2023/06/05 09:49:03;;;;;;;5.90;0.90;;;;;;;-128.00;-1.00;-1.00;106555;1255;1012685;-74
2023/06/05 09:51:51;;;;;;;5.80;1.00;;;;;;;-128.00;-1.00;-1.00;106664;1255;1012310;-74
2023/06/05 09:54:44;;;;;;;6.20;1.20;;;;;;;-128.00;-1.00;-1.00;106663;1256;1009216;-72
2023/06/05 09:57:33;;;;;;;5.50;1.00;;;;;;;-128.00;-1.00;-1.00;106304;1259;1011416;-77
2023/06/05 10:00:21;;;;;;;6.60;1.20;;;;;;;-128.00;-1.00;-1.00;106246;1259;1012985;-76
2023/06/05 10:03:20;;;;;;;5.50;1.00;;;;;;;-128.00;-1.00;-1.00;106165;1259;1012930;-74
2023/06/05 10:06:08;;;;;;;6.30;1.00;;;;;;;-128.00;-1.00;-1.00;106328;1259;1012559;-74
2023/06/05 10:09:06;;;;;;;6.70;1.30;;;;;;;-128.00;-1.00;-1.00;106250;1259;1009775;-76
2023/06/05 10:11:55;;;;;;;9.40;1.20;;;;;;;-128.00;-1.00;-1.00;106283;1259;1011157;-74
2023/06/05 10:14:43;;;;;;;7.40;1.50;;;;;;;-128.00;-1.00;-1.00;106195;1259;1013086;-73
2023/06/05 10:17:32;;;;;;;6.40;1.30;;;;;;;-128.00;-1.00;-1.00;106300;1259;1012816;-74
2023/06/05 10:20:23;;;;;;;6.00;1.40;;;;;;;-128.00;-1.00;-1.00;106291;1259;1012999;-72
2023/06/05 10:23:11;;;;;;;8.60;1.30;;;;;;;-128.00;-1.00;-1.00;106339;1259;1009426;-72
2023/06/05 10:26:06;;;;;;;5.90;1.30;;;;;;;-128.00;-1.00;-1.00;106335;1259;1010666;-74
2023/06/05 10:29:12;;;;;;;5.70;1.20;;;;;;;-128.00;-1.00;-1.00;106416;1255;1013036;-74
2023/06/05 10:32:34;;;;;;;4.80;1.00;;;;;;;-128.00;-1.00;-1.00;106491;1255;1013133;-76
2023/06/05 10:36:05;;;;;;;7.50;1.30;;;;;;;-128.00;-1.00;-1.00;106612;1256;1013710;-74
2023/06/05 10:38:53;;;;;;;5.10;1.10;;;;;;;-128.00;-1.00;-1.00;106515;1255;1010271;-76
2023/06/05 10:41:43;;;;;;;5.50;1.00;;;;;;;-128.00;-1.00;-1.00;106452;1255;1010748;-77
2023/06/05 10:44:44;;;;;;;6.30;1.10;;;;;;;-128.00;-1.00;-1.00;106428;1256;1012009;-74
2023/06/05 10:47:33;;;;;;;5.90;1.20;;;;;;;-128.00;-1.00;-1.00;106514;1255;1012320;-74
2023/06/05 10:50:25;;;;;;;6.30;1.20;;;;;;;-128.00;-1.00;-1.00;106505;1256;1012797;-75
2023/06/05 10:53:44;;;;;;;6.00;1.20;;;;;;;-128.00;-1.00;-1.00;106435;1255;1009280;-74
2023/06/05 10:56:53;;;;;;;4.90;1.20;;;;;;;-128.00;-1.00;-1.00;106225;1260;1010712;-75
2023/06/05 10:59:42;;;;;;;6.30;1.10;;;;;;;-128.00;-1.00;-1.00;106292;1260;1011949;-70
2023/06/05 11:02:30;;;;;;;5.70;1.20;;;;;;;-128.00;-1.00;-1.00;106164;1260;1012492;-82
2023/06/05 11:05:21;;;;;;;6.20;1.40;;;;;;;-128.00;-1.00;-1.00;106224;1260;1013361;-74
2023/06/05 11:08:19;;;;;;;6.70;1.20;;;;;;;-128.00;-1.00;-1.00;106256;1260;1009682;-73
2023/06/05 11:11:09;;;;;;;5.80;0.90;;;;;;;-128.00;-1.00;-1.00;106260;1260;1011064;-74
2023/06/05 11:14:00;;;;;;;4.90;1.10;;;;;;;-128.00;-1.00;-1.00;106319;1260;1012940;-77
2023/06/05 11:16:48;;;;;;;6.60;1.30;;;;;;;-128.00;-1.00;-1.00;106200;1263;1011980;-76
2023/06/05 11:19:38;;;;;;;5.60;1.20;;;;;;;-128.00;-1.00;-1.00;106154;1264;1012805;-76
2023/06/05 11:22:27;;;;;;;5.10;1.00;;;;;;;-128.00;-1.00;-1.00;106119;1263;1009211;-76
2023/06/05 11:25:36;;;;;;;6.30;1.30;;;;;;;-128.00;-1.00;-1.00;106085;1263;1011105;-80
2023/06/05 11:28:56;;;;;;;5.70;1.20;;;;;;;-128.00;-1.00;-1.00;105985;1267;1012941;-75
2023/06/05 11:31:47;;;;;;;6.20;1.40;;;;;;;-128.00;-1.00;-1.00;105630;1270;1012403;-80
2023/06/05 11:34:36;;;;;;;5.50;1.30;;;;;;;-128.00;-1.00;-1.00;105564;1270;1012837;-77
2023/06/05 11:37:25;;;;;;;6.40;1.30;;;;;;;-128.00;-1.00;-1.00;105452;1270;1010769;-78
2023/06/05 11:40:25;;;;;;;9.50;1.20;;;;;;;-128.00;-1.00;-1.00;105415;1270;1010654;-81
2023/06/05 11:43:15;;;;;;;5.70;1.00;;;;;;;-128.00;-1.00;-1.00;105630;1270;1012797;-74
2023/06/05 11:46:04;;;;;;;4.80;1.40;;;;;;;-128.00;-1.00;-1.00;105512;1270;1012712;-79
2023/06/05 11:48:51;;;;;;;6.50;1.10;;;;;;;-128.00;-1.00;-1.00;105616;1270;1013446;-78
2023/06/05 11:51:40;;;;;;;5.60;1.20;;;;;;;-128.00;-1.00;-1.00;105652;1270;1009506;-76
2023/06/05 11:54:33;;;;;;;5.20;1.20;;;;;;;-128.00;-1.00;-1.00;105684;1270;1011150;-79
2023/06/05 11:57:27;;;;;;;6.50;1.20;;;;;;;-128.00;-1.00;-1.00;105470;1270;1011823;-79
2023/06/05 12:00:33;;;;;;;5.30;1.20;;;;;;;-128.00;-1.00;-1.00;105711;1269;1011568;-79
2023/06/05 12:03:21;;;;;;;9.20;1.20;;;;;;;-128.00;-1.00;-1.00;105580;1270;1012964;-79
2023/06/05 12:06:12;;;;;;;5.10;1.00;;;;;;;-128.00;-1.00;-1.00;105627;1267;1009167;-80
2023/06/05 12:09:09;;;;;;;6.10;1.10;;;;;;;-128.00;-1.00;-1.00;106204;1260;1011007;-79
2023/06/05 12:12:08;;;;;;;7.50;1.30;;;;;;;-128.00;-1.00;-1.00;106165;1263;1012826;-76
2023/06/05 12:15:13;;;;;;;5.90;1.30;;;;;;;-128.00;-1.00;-1.00;106179;1264;1012269;-78
2023/06/05 12:18:04;;;;;;;5.90;1.30;;;;;;;-128.00;-1.00;-1.00;106197;1260;1012980;-78
2023/06/05 12:20:53;;;;;;;5.70;1.30;;;;;;;-128.00;-1.00;-1.00;106167;1260;1009932;-77
2023/06/05 12:23:41;;;;;;;5.10;1.20;;;;;;;-128.00;-1.00;-1.00;106230;1260;1011737;-80
2023/06/05 12:26:30;;;;;;;6.10;1.20;;;;;;;-128.00;-1.00;-1.00;105970;1264;1013171;-78
2023/06/05 12:29:19;;;;;;;4.30;1.20;;;;;;;-128.00;-1.00;-1.00;105944;1264;1013177;-81
2023/06/05 12:32:25;;;;;;;5.50;1.80;;;;;;;-128.00;-1.00;-1.00;106050;1264;1014011;-76
2023/06/05 12:35:24;;;;;;;6.40;1.20;;;;;;;-128.00;-1.00;-1.00;105973;1265;1010010;-79
2023/06/05 12:38:13;;;;;;;6.60;1.10;;;;;;;-128.00;-1.00;-1.00;106017;1265;1011271;-79
2023/06/05 12:41:02;;;;;;;7.60;1.20;;;;;;;-128.00;-1.00;-1.00;106011;1265;1012962;-79
2023/06/05 12:44:06;;;;;;;4.90;1.20;;;;;;;-128.00;-1.00;-1.00;105939;1267;1012315;-79
2023/06/05 12:46:54;;;;;;;4.70;1.20;;;;;;;-128.00;-1.00;-1.00;106077;1264;1012715;-76
2023/06/05 12:49:42;;;;;;;5.50;1.20;;;;;;;-128.00;-1.00;-1.00;105979;1265;1009697;-79
2023/06/05 12:52:31;;;;;;;6.60;1.20;;;;;;;-128.00;-1.00;-1.00;106072;1264;1011805;-78
2023/06/05 12:55:19;;;;;;;6.00;1.30;;;;;;;-128.00;-1.00;-1.00;105950;1265;1013400;-75
2023/06/05 12:58:10;;;;;;;5.50;2.00;;;;;;;-128.00;-1.00;-1.00;106133;1260;1012244;-77
2023/06/05 13:01:00;;;;;;;5.90;1.90;;;;;;;-128.00;-1.00;-1.00;106156;1260;1013492;-73
2023/06/05 13:03:50;;;;;;;6.40;1.50;;;;;;;-128.00;-1.00;-1.00;106145;1260;1009330;-76